createdAt,value
2022-11-26T00:00:00.529Z,8.50
2022-11-26T00:01:03.084Z,8.50
2022-11-26T00:02:25.162Z,8.50
2022-11-26T00:03:27.623Z,8.50
2022-11-26T00:04:29.947Z,8.50
2022-11-26T00:05:32.687Z,8.50
2022-11-26T00:06:37.704Z,8.50
2022-11-26T00:07:41.120Z,8.50
2022-11-26T00:08:43.457Z,8.50
2022-11-26T00:09:45.762Z,8.50
2022-11-26T00:10:52.132Z,8.60
2022-11-26T00:11:54.407Z,8.60
2022-11-26T00:12:57.803Z,8.60
2022-11-26T00:14:00.144Z,8.60
2022-11-26T00:15:19.235Z,8.60
2022-11-26T00:16:21.604Z,8.60
2022-11-26T00:17:24.189Z,8.60
2022-11-26T00:18:26.900Z,8.60
2022-11-26T00:19:29.256Z,8.60
2022-11-26T00:20:31.906Z,8.60
2022-11-26T00:21:37.398Z,8.60
2022-11-26T00:22:46.370Z,8.60
2022-11-26T00:23:49.143Z,8.60
2022-11-26T00:24:52.360Z,8.60
2022-11-26T00:26:01.353Z,8.60
2022-11-26T00:27:03.700Z,8.60
2022-11-26T00:28:34.518Z,8.60
2022-11-26T00:29:36.779Z,8.60
2022-11-26T00:30:39.036Z,8.60
2022-11-26T00:31:41.356Z,8.60
2022-11-26T00:32:43.763Z,8.60
2022-11-26T00:33:46.075Z,8.60
2022-11-26T00:34:48.440Z,8.60
2022-11-26T00:35:55.743Z,8.60
2022-11-26T00:36:58.122Z,8.60
2022-11-26T00:38:00.416Z,8.60
2022-11-26T00:39:11.408Z,8.70
2022-11-26T00:40:40.823Z,8.70
2022-11-26T00:41:49.813Z,8.70
2022-11-26T00:42:54.501Z,8.70
2022-11-26T00:44:00.025Z,8.70
2022-11-26T00:45:02.316Z,8.70
2022-11-26T00:46:04.736Z,8.70
2022-11-26T00:47:08.946Z,8.70
2022-11-26T00:48:11.445Z,8.70
2022-11-26T00:49:14.214Z,8.70
2022-11-26T00:50:19.082Z,8.60
2022-11-26T00:51:24.746Z,8.70
2022-11-26T00:52:34.543Z,8.60
2022-11-26T00:53:36.868Z,8.60
2022-11-26T00:54:39.418Z,8.60
2022-11-26T00:55:45.371Z,8.60
2022-11-26T00:56:49.014Z,8.60
2022-11-26T00:57:51.262Z,8.60
2022-11-26T00:58:53.587Z,8.60
2022-11-26T00:59:55.832Z,8.60
2022-11-26T01:00:59.864Z,8.60
2022-11-26T01:02:02.230Z,8.60
2022-11-26T01:03:04.518Z,8.60
2022-11-26T01:04:07.038Z,8.60
2022-11-26T01:05:09.372Z,8.70
2022-11-26T01:06:24.950Z,8.60
2022-11-26T01:07:27.321Z,8.60
2022-11-26T01:08:29.652Z,8.60
2022-11-26T01:09:32.113Z,8.60
2022-11-26T01:10:34.352Z,8.60
2022-11-26T01:11:36.647Z,8.60
2022-11-26T01:12:38.903Z,8.60
2022-11-26T01:13:42.651Z,8.60
2022-11-26T01:14:45.015Z,8.60
2022-11-26T01:15:47.435Z,8.60
2022-11-26T01:16:51.170Z,8.60
2022-11-26T01:17:53.519Z,8.60
2022-11-26T01:18:57.851Z,8.60
2022-11-26T01:20:00.130Z,8.70
2022-11-26T01:21:02.443Z,8.60
2022-11-26T01:22:04.724Z,8.60
2022-11-26T01:23:10.679Z,8.60
2022-11-26T01:24:12.954Z,8.60
2022-11-26T01:25:15.323Z,8.60
2022-11-26T01:26:28.876Z,8.60
2022-11-26T01:27:31.120Z,8.60
2022-11-26T01:28:33.538Z,8.60
2022-11-26T01:29:35.767Z,8.60
2022-11-26T01:30:38.479Z,8.60
2022-11-26T01:31:40.842Z,8.60
2022-11-26T01:32:43.397Z,8.60
2022-11-26T01:33:46.248Z,8.60
2022-11-26T01:34:48.523Z,8.70
2022-11-26T01:35:50.732Z,8.60
2022-11-26T01:36:52.990Z,8.60
2022-11-26T01:37:55.867Z,8.60
2022-11-26T01:39:00.895Z,8.60
2022-11-26T01:40:04.377Z,8.70
2022-11-26T01:41:26.866Z,8.70
2022-11-26T01:42:29.069Z,8.70
2022-11-26T01:43:41.518Z,8.60
2022-11-26T01:44:43.840Z,8.60
2022-11-26T01:45:46.161Z,8.60
2022-11-26T01:46:49.787Z,8.70
2022-11-26T01:47:52.085Z,8.60
2022-11-26T01:48:55.666Z,8.60
2022-11-26T01:50:31.787Z,8.60
2022-11-26T01:51:34.053Z,8.60
2022-11-26T01:52:36.584Z,8.60
2022-11-26T01:53:45.612Z,8.60
2022-11-26T01:54:48.740Z,8.60
2022-11-26T01:55:58.801Z,8.60
2022-11-26T01:57:17.960Z,8.60
2022-11-26T01:58:39.523Z,8.60
2022-11-26T01:59:45.982Z,8.60
2022-11-26T02:00:50.288Z,8.60
2022-11-26T02:01:58.909Z,8.60
2022-11-26T02:03:02.232Z,8.60
2022-11-26T02:04:18.091Z,8.50
2022-11-26T02:05:24.931Z,8.50
2022-11-26T02:06:32.716Z,8.50
2022-11-26T02:07:36.246Z,8.50
2022-11-26T02:08:38.748Z,8.50
2022-11-26T02:09:41.180Z,8.50
2022-11-26T02:10:43.475Z,8.50
2022-11-26T02:11:46.114Z,8.50
2022-11-26T02:12:49.096Z,8.50
2022-11-26T02:13:55.750Z,8.60
2022-11-26T02:15:04.064Z,8.60
2022-11-26T02:16:19.742Z,8.60
2022-11-26T02:17:29.453Z,8.60
2022-11-26T02:18:37.779Z,8.60
2022-11-26T02:20:03.374Z,8.60
2022-11-26T02:21:26.057Z,8.60
2022-11-26T02:22:42.311Z,8.60
2022-11-26T02:24:04.179Z,8.60
2022-11-26T02:25:28.535Z,8.60
2022-11-26T02:27:08.820Z,8.60
2022-11-26T02:28:38.251Z,8.60
2022-11-26T02:30:08.096Z,8.70
2022-11-26T02:31:22.019Z,8.70
2022-11-26T02:32:37.731Z,8.70
2022-11-26T02:33:53.654Z,8.70
2022-11-26T02:35:06.593Z,8.70
2022-11-26T02:36:41.867Z,8.70
2022-11-26T02:37:51.686Z,8.70
2022-11-26T02:38:53.948Z,8.70
2022-11-26T02:39:57.819Z,8.70
2022-11-26T02:41:00.686Z,8.70
2022-11-26T02:42:04.423Z,8.70
2022-11-26T02:43:06.708Z,8.70
2022-11-26T02:44:09.276Z,8.70
2022-11-26T02:45:24.598Z,8.70
2022-11-26T02:46:26.882Z,8.70
2022-11-26T02:47:30.219Z,8.70
2022-11-26T02:48:36.840Z,8.80
2022-11-26T02:49:41.207Z,8.80
2022-11-26T02:50:47.528Z,8.80
2022-11-26T02:51:54.092Z,8.80
2022-11-26T02:52:58.569Z,8.80
2022-11-26T02:54:01.746Z,8.80
2022-11-26T02:55:07.689Z,8.80
2022-11-26T02:56:17.226Z,8.80
2022-11-26T02:57:23.103Z,8.80
2022-11-26T02:58:25.408Z,8.80
2022-11-26T02:59:28.418Z,8.80
2022-11-26T03:00:33.282Z,8.80
2022-11-26T03:01:45.719Z,8.80
2022-11-26T03:02:50.730Z,8.80
2022-11-26T03:03:55.143Z,8.80
2022-11-26T03:05:00.216Z,8.80
2022-11-26T03:06:07.716Z,8.80
2022-11-26T03:07:13.003Z,8.90
2022-11-26T03:08:16.593Z,8.90
2022-11-26T03:09:22.275Z,8.80
2022-11-26T03:10:26.782Z,8.80
2022-11-26T03:11:29.181Z,8.80
2022-11-26T03:12:31.457Z,8.80
2022-11-26T03:13:33.929Z,8.80
2022-11-26T03:14:36.350Z,8.80
2022-11-26T03:15:39.009Z,8.80
2022-11-26T03:16:41.306Z,8.70
2022-11-26T03:17:43.659Z,8.80
2022-11-26T03:18:45.986Z,8.80
2022-11-26T03:19:48.296Z,8.70
2022-11-26T03:20:52.534Z,8.70
2022-11-26T03:21:54.930Z,8.70
2022-11-26T03:22:57.223Z,8.70
2022-11-26T03:24:00.244Z,8.70
2022-11-26T03:25:02.778Z,8.70
2022-11-26T03:26:05.047Z,8.70
2022-11-26T03:27:07.558Z,8.70
2022-11-26T03:28:09.853Z,8.70
2022-11-26T03:29:12.141Z,8.70
2022-11-26T03:30:14.520Z,8.70
2022-11-26T03:31:16.932Z,8.70
2022-11-26T03:32:19.241Z,8.70
2022-11-26T03:33:21.521Z,8.80
2022-11-26T03:34:24.241Z,8.70
2022-11-26T03:35:26.458Z,8.70
2022-11-26T03:36:28.753Z,8.70
2022-11-26T03:37:31.422Z,8.70
2022-11-26T03:38:33.692Z,8.70
2022-11-26T03:39:35.954Z,8.80
2022-11-26T03:40:38.248Z,8.70
2022-11-26T03:41:44.193Z,8.70
2022-11-26T03:42:46.565Z,8.70
2022-11-26T03:43:49.228Z,8.70
2022-11-26T03:44:51.491Z,8.80
2022-11-26T03:45:54.150Z,8.80
2022-11-26T03:46:56.473Z,8.80
2022-11-26T03:47:58.835Z,8.70
2022-11-26T03:49:01.088Z,8.70
2022-11-26T03:50:04.688Z,8.70
2022-11-26T03:51:07.340Z,8.70
2022-11-26T03:52:09.711Z,8.80
2022-11-26T03:53:12.048Z,8.70
2022-11-26T03:54:14.697Z,8.70
2022-11-26T03:55:17.788Z,8.70
2022-11-26T03:56:20.092Z,8.70
2022-11-26T03:57:22.412Z,8.70
2022-11-26T03:58:24.722Z,8.70
2022-11-26T03:59:27.372Z,8.70
2022-11-26T04:00:29.702Z,8.70
2022-11-26T04:01:32.029Z,8.70
2022-11-26T04:02:35.016Z,8.80
2022-11-26T04:03:38.249Z,8.80
2022-11-26T04:04:40.650Z,8.80
2022-11-26T04:05:43.092Z,8.80
2022-11-26T04:06:45.402Z,8.80
2022-11-26T04:07:47.733Z,8.80
2022-11-26T04:08:50.128Z,8.80
2022-11-26T04:09:52.382Z,8.80
2022-11-26T04:10:54.679Z,8.80
2022-11-26T04:11:57.117Z,8.80
2022-11-26T04:12:59.518Z,8.80
2022-11-26T04:14:01.950Z,8.80
2022-11-26T04:15:04.621Z,8.80
2022-11-26T04:16:07.728Z,8.80
2022-11-26T04:17:10.070Z,8.80
2022-11-26T04:18:12.302Z,8.80
2022-11-26T04:19:14.550Z,8.80
2022-11-26T04:20:17.155Z,8.80
2022-11-26T04:21:19.466Z,8.80
2022-11-26T04:22:21.892Z,8.80
2022-11-26T04:23:24.416Z,8.80
2022-11-26T04:24:26.843Z,8.80
2022-11-26T04:25:29.108Z,8.80
2022-11-26T04:26:31.408Z,8.80
2022-11-26T04:27:34.017Z,8.80
2022-11-26T04:28:36.336Z,8.80
2022-11-26T04:29:38.714Z,8.80
2022-11-26T04:30:41.451Z,8.80
2022-11-26T04:31:43.911Z,8.80
2022-11-26T04:32:46.311Z,8.80
2022-11-26T04:33:48.610Z,8.80
2022-11-26T04:34:51.019Z,8.80
2022-11-26T04:35:53.882Z,8.80
2022-11-26T04:36:56.409Z,8.80
2022-11-26T04:37:58.673Z,8.80
2022-11-26T04:39:00.959Z,8.80
2022-11-26T04:40:03.734Z,8.80
2022-11-26T04:41:06.294Z,8.80
2022-11-26T04:42:08.606Z,8.80
2022-11-26T04:43:10.942Z,8.80
2022-11-26T04:44:13.281Z,8.80
2022-11-26T04:45:15.637Z,8.80
2022-11-26T04:46:17.924Z,8.80
2022-11-26T04:47:20.161Z,8.80
2022-11-26T04:48:22.657Z,8.80
2022-11-26T04:49:25.155Z,8.80
2022-11-26T04:50:27.484Z,8.80
2022-11-26T04:51:29.829Z,8.80
2022-11-26T04:52:32.111Z,8.80
2022-11-26T04:53:34.467Z,8.80
2022-11-26T04:54:37.081Z,8.80
2022-11-26T04:55:39.685Z,8.80
2022-11-26T04:56:42.002Z,8.80
2022-11-26T04:57:48.858Z,8.80
2022-11-26T04:58:51.318Z,8.80
2022-11-26T04:59:53.574Z,8.80
2022-11-26T05:00:55.956Z,8.80
2022-11-26T05:01:59.660Z,8.80
2022-11-26T05:03:01.954Z,8.80
2022-11-26T05:04:04.469Z,8.80
2022-11-26T05:05:07.386Z,8.80
2022-11-26T05:06:10.844Z,8.80
2022-11-26T05:07:13.177Z,8.80
2022-11-26T05:08:15.533Z,8.80
2022-11-26T05:09:17.850Z,8.80
2022-11-26T05:10:20.142Z,8.80
2022-11-26T05:11:22.432Z,8.90
2022-11-26T05:12:24.735Z,8.90
2022-11-26T05:13:27.210Z,8.90
2022-11-26T05:14:29.556Z,8.90
2022-11-26T05:15:31.779Z,8.90
2022-11-26T05:16:34.337Z,8.90
2022-11-26T05:17:36.754Z,8.90
2022-11-26T05:18:39.037Z,8.90
2022-11-26T05:19:41.382Z,8.90
2022-11-26T05:20:43.676Z,8.90
2022-11-26T05:21:46.043Z,8.90
2022-11-26T05:22:48.342Z,8.90
2022-11-26T05:23:50.665Z,8.90
2022-11-26T05:24:53.785Z,8.90
2022-11-26T05:25:56.080Z,8.90
2022-11-26T05:26:58.402Z,8.90
2022-11-26T05:28:00.820Z,8.90
2022-11-26T05:29:03.162Z,8.90
2022-11-26T05:30:06.067Z,8.90
2022-11-26T05:31:08.398Z,8.90
2022-11-26T05:32:10.701Z,8.90
2022-11-26T05:33:13.046Z,8.90
2022-11-26T05:34:15.386Z,8.90
2022-11-26T05:35:17.749Z,8.90
2022-11-26T05:36:20.058Z,8.80
2022-11-26T05:37:22.328Z,8.90
2022-11-26T05:38:24.690Z,8.90
2022-11-26T05:39:27.059Z,8.90
2022-11-26T05:40:29.350Z,8.90
2022-11-26T05:41:31.690Z,8.90
2022-11-26T05:42:33.939Z,8.90
2022-11-26T05:43:36.182Z,8.90
2022-11-26T05:44:38.842Z,8.90
2022-11-26T05:45:41.390Z,8.90
2022-11-26T05:46:43.756Z,8.90
2022-11-26T05:47:48.802Z,8.90
2022-11-26T05:48:51.062Z,8.90
2022-11-26T05:49:53.529Z,8.90
2022-11-26T05:50:59.945Z,8.90
2022-11-26T05:52:02.239Z,8.90
2022-11-26T05:53:05.005Z,8.90
2022-11-26T05:54:07.643Z,8.90
2022-11-26T05:55:10.677Z,8.90
2022-11-26T05:56:12.996Z,8.90
2022-11-26T05:57:15.270Z,8.90
2022-11-26T05:58:17.655Z,8.90
2022-11-26T05:59:19.906Z,8.90
2022-11-26T06:00:22.366Z,8.90
2022-11-26T06:01:24.612Z,8.90
2022-11-26T06:02:27.201Z,8.90
2022-11-26T06:03:29.669Z,8.90
2022-11-26T06:04:32.096Z,8.90
2022-11-26T06:05:34.385Z,8.90
2022-11-26T06:06:36.737Z,8.90
2022-11-26T06:07:43.292Z,8.90
2022-11-26T06:08:47.171Z,8.90
2022-11-26T06:09:49.440Z,8.90
2022-11-26T06:10:51.977Z,8.90
2022-11-26T06:11:54.292Z,8.90
2022-11-26T06:12:56.731Z,8.90
2022-11-26T06:13:59.021Z,8.90
2022-11-26T06:15:01.818Z,8.90
2022-11-26T06:16:04.220Z,8.90
2022-11-26T06:17:06.526Z,8.90
2022-11-26T06:18:08.941Z,8.80
2022-11-26T06:19:12.214Z,8.90
2022-11-26T06:20:14.745Z,8.90
2022-11-26T06:21:17.029Z,8.90
2022-11-26T06:22:19.418Z,8.90
2022-11-26T06:23:21.867Z,8.90
2022-11-26T06:24:24.216Z,8.90
2022-11-26T06:25:26.594Z,8.90
2022-11-26T06:26:28.857Z,8.80
2022-11-26T06:27:33.710Z,8.80
2022-11-26T06:28:36.163Z,8.80
2022-11-26T06:29:38.434Z,8.80
2022-11-26T06:30:40.701Z,8.80
2022-11-26T06:31:43.020Z,8.80
2022-11-26T06:32:45.461Z,8.80
2022-11-26T06:33:47.948Z,8.80
2022-11-26T06:34:53.992Z,8.80
2022-11-26T06:36:01.226Z,8.90
2022-11-26T06:37:04.129Z,8.80
2022-11-26T06:38:06.385Z,8.80
2022-11-26T06:39:10.461Z,8.80
2022-11-26T06:40:17.795Z,8.80
2022-11-26T06:41:20.195Z,8.80
2022-11-26T06:42:22.674Z,8.80
2022-11-26T06:43:24.954Z,8.80
2022-11-26T06:44:27.195Z,8.90
2022-11-26T06:45:29.704Z,8.90
2022-11-26T06:46:34.629Z,8.90
2022-11-26T06:47:36.996Z,8.90
2022-11-26T06:48:40.251Z,8.90
2022-11-26T06:49:42.936Z,8.90
2022-11-26T06:50:45.168Z,8.90
2022-11-26T06:51:47.501Z,8.90
2022-11-26T06:52:53.429Z,8.90
2022-11-26T06:53:55.773Z,8.90
2022-11-26T06:54:58.070Z,8.90
2022-11-26T06:56:13.560Z,8.90
2022-11-26T06:57:20.266Z,8.90
2022-11-26T06:58:25.014Z,8.90
2022-11-26T06:59:27.277Z,8.90
2022-11-26T07:00:29.579Z,8.90
2022-11-26T07:01:31.946Z,8.90
2022-11-26T07:02:34.492Z,8.90
2022-11-26T07:03:37.229Z,8.90
2022-11-26T07:04:39.901Z,8.90
2022-11-26T07:05:42.222Z,8.90
2022-11-26T07:06:45.893Z,8.90
2022-11-26T07:07:48.254Z,8.90
2022-11-26T07:08:51.920Z,8.90
2022-11-26T07:09:54.187Z,8.90
2022-11-26T07:10:56.481Z,8.90
2022-11-26T07:11:58.920Z,8.90
2022-11-26T07:13:01.283Z,8.90
2022-11-26T07:14:03.850Z,8.90
2022-11-26T07:15:06.766Z,8.90
2022-11-26T07:16:09.494Z,8.90
2022-11-26T07:17:11.765Z,8.90
2022-11-26T07:18:14.066Z,8.90
2022-11-26T07:19:16.507Z,8.90
2022-11-26T07:20:18.885Z,8.90
2022-11-26T07:21:22.498Z,8.90
2022-11-26T07:22:25.143Z,8.90
2022-11-26T07:23:27.406Z,8.90
2022-11-26T07:24:29.804Z,8.90
2022-11-26T07:25:32.199Z,8.90
2022-11-26T07:26:34.444Z,8.90
2022-11-26T07:27:36.687Z,8.90
2022-11-26T07:28:39.254Z,8.90
2022-11-26T07:29:41.542Z,8.90
2022-11-26T07:30:43.893Z,8.90
2022-11-26T07:31:46.221Z,8.90
2022-11-26T07:32:48.500Z,9.00
2022-11-26T07:33:53.337Z,9.00
2022-11-26T07:34:55.690Z,9.00
2022-11-26T07:36:01.622Z,9.00
2022-11-26T07:37:03.993Z,9.00
2022-11-26T07:38:06.296Z,9.00
2022-11-26T07:39:11.143Z,9.00
2022-11-26T07:40:13.887Z,9.00
2022-11-26T07:41:20.501Z,9.00
2022-11-26T07:42:22.918Z,9.10
2022-11-26T07:43:25.365Z,9.00
2022-11-26T07:44:27.713Z,9.10
2022-11-26T07:45:30.055Z,9.10
2022-11-26T07:46:32.398Z,9.00
2022-11-26T07:47:34.720Z,9.10
2022-11-26T07:48:39.264Z,9.00
2022-11-26T07:49:41.607Z,9.10
2022-11-26T07:50:45.022Z,9.10
2022-11-26T07:51:47.333Z,9.10
2022-11-26T07:52:52.849Z,9.20
2022-11-26T07:53:56.742Z,9.10
2022-11-26T07:54:59.023Z,9.10
2022-11-26T07:56:06.163Z,9.10
2022-11-26T07:57:08.414Z,9.10
2022-11-26T07:58:10.811Z,9.10
2022-11-26T07:59:13.081Z,9.10
2022-11-26T08:00:16.009Z,9.10
2022-11-26T08:01:29.835Z,9.10
2022-11-26T08:02:32.289Z,9.20
2022-11-26T08:03:38.345Z,9.20
2022-11-26T08:04:41.331Z,9.20
2022-11-26T08:05:44.770Z,9.20
2022-11-26T08:06:47.048Z,9.20
2022-11-26T08:07:49.450Z,9.20
2022-11-26T08:08:51.953Z,9.20
2022-11-26T08:09:54.248Z,9.20
2022-11-26T08:10:56.542Z,9.20
2022-11-26T08:11:58.913Z,9.20
2022-11-26T08:13:01.637Z,9.30
2022-11-26T08:14:10.171Z,9.30
2022-11-26T08:15:13.666Z,9.30
2022-11-26T08:16:16.703Z,9.30
2022-11-26T08:17:19.191Z,9.30
2022-11-26T08:18:21.411Z,9.30
2022-11-26T08:19:23.864Z,9.30
2022-11-26T08:20:28.998Z,9.30
2022-11-26T08:21:32.087Z,9.40
2022-11-26T08:22:34.448Z,9.40
2022-11-26T08:23:36.887Z,9.40
2022-11-26T08:24:40.120Z,9.40
2022-11-26T08:25:59.521Z,9.40
2022-11-26T08:27:05.240Z,9.50
2022-11-26T08:28:07.765Z,9.50
2022-11-26T08:29:10.074Z,9.50
2022-11-26T08:30:14.431Z,9.50
2022-11-26T08:31:16.943Z,9.50
2022-11-26T08:32:19.454Z,9.50
2022-11-26T08:33:21.724Z,9.50
2022-11-26T08:34:24.031Z,9.50
2022-11-26T08:35:38.848Z,9.50
2022-11-26T08:36:48.765Z,9.50
2022-11-26T08:37:51.087Z,9.60
2022-11-26T08:38:53.394Z,9.60
2022-11-26T08:39:55.722Z,9.60
2022-11-26T08:41:16.013Z,9.60
2022-11-26T08:42:18.408Z,9.60
2022-11-26T08:43:30.823Z,9.60
2022-11-26T08:44:42.594Z,9.70
2022-11-26T08:45:51.338Z,9.70
2022-11-26T08:46:53.620Z,9.70
2022-11-26T08:47:55.847Z,9.70
2022-11-26T08:48:58.435Z,9.70
2022-11-26T08:50:00.691Z,9.70
2022-11-26T08:51:05.883Z,9.70
2022-11-26T08:52:08.130Z,9.70
2022-11-26T08:53:10.402Z,9.60
2022-11-26T08:54:12.771Z,9.60
2022-11-26T08:55:15.121Z,9.60
2022-11-26T08:56:17.483Z,9.60
2022-11-26T08:57:19.880Z,9.60
2022-11-26T08:58:22.199Z,9.60
2022-11-26T08:59:25.349Z,9.70
2022-11-26T09:00:27.923Z,9.70
2022-11-26T09:01:33.061Z,9.70
2022-11-26T09:02:35.497Z,9.70
2022-11-26T09:03:38.014Z,9.70
2022-11-26T09:04:41.644Z,9.70
2022-11-26T09:05:43.987Z,9.70
2022-11-26T09:06:46.329Z,9.70
2022-11-26T09:07:49.161Z,9.70
2022-11-26T09:09:10.534Z,9.70
2022-11-26T09:10:13.307Z,9.70
2022-11-26T09:11:15.565Z,9.70
2022-11-26T09:12:18.226Z,9.70
2022-11-26T09:13:21.385Z,9.70
2022-11-26T09:14:26.706Z,9.70
2022-11-26T09:15:28.964Z,9.70
2022-11-26T09:16:31.747Z,9.70
2022-11-26T09:17:34.011Z,9.70
2022-11-26T09:18:36.333Z,9.80
2022-11-26T09:19:38.663Z,9.70
2022-11-26T09:20:40.951Z,9.80
2022-11-26T09:21:44.265Z,9.70
2022-11-26T09:22:46.509Z,9.80
2022-11-26T09:23:48.952Z,9.80
2022-11-26T09:24:51.241Z,9.80
2022-11-26T09:25:53.477Z,9.70
2022-11-26T09:26:55.751Z,9.70
2022-11-26T09:27:58.069Z,9.70
2022-11-26T09:29:01.182Z,9.70
2022-11-26T09:30:04.338Z,9.70
2022-11-26T09:31:07.253Z,9.70
2022-11-26T09:32:29.699Z,9.70
2022-11-26T09:33:33.056Z,9.70
2022-11-26T09:34:37.050Z,9.70
2022-11-26T09:35:39.547Z,9.70
2022-11-26T09:36:42.542Z,9.70
2022-11-26T09:37:48.745Z,9.70
2022-11-26T09:38:55.125Z,9.80
2022-11-26T09:39:57.433Z,9.80
2022-11-26T09:41:27.636Z,9.80
2022-11-26T09:43:05.475Z,9.80
2022-11-26T09:44:34.150Z,9.80
2022-11-26T09:45:52.713Z,9.80
2022-11-26T09:47:16.939Z,9.80
2022-11-26T09:48:23.625Z,9.80
2022-11-26T09:49:28.307Z,9.80
2022-11-26T09:50:33.405Z,9.80
2022-11-26T09:51:35.902Z,9.80
2022-11-26T09:52:52.333Z,9.80
2022-11-26T09:53:55.133Z,9.80
2022-11-26T09:55:14.436Z,9.80
2022-11-26T09:56:26.877Z,9.80
2022-11-26T09:57:41.163Z,9.80
2022-11-26T09:58:52.241Z,9.80
2022-11-26T09:59:55.782Z,9.80
2022-11-26T10:01:00.334Z,9.90
2022-11-26T10:02:02.760Z,9.90
2022-11-26T10:03:16.026Z,9.90
2022-11-26T10:04:49.775Z,9.90
2022-11-26T10:06:18.111Z,9.90
2022-11-26T10:07:58.450Z,10.00
2022-11-26T10:09:16.812Z,10.00
2022-11-26T10:10:19.576Z,9.90
2022-11-26T10:11:24.462Z,10.00
2022-11-26T10:13:19.060Z,10.00
2022-11-26T10:14:41.762Z,10.00
2022-11-26T10:15:58.635Z,10.00
2022-11-26T10:17:31.332Z,10.00
2022-11-26T10:18:58.769Z,10.00
2022-11-26T10:20:19.487Z,10.00
2022-11-26T10:21:32.327Z,10.00
2022-11-26T10:22:57.586Z,9.90
2022-11-26T10:24:22.978Z,10.00
2022-11-26T10:25:28.906Z,10.00
2022-11-26T10:26:36.063Z,9.90
2022-11-26T10:27:38.741Z,9.90
2022-11-26T10:28:45.166Z,9.90
2022-11-26T10:29:55.576Z,9.90
2022-11-26T10:31:03.105Z,9.90
2022-11-26T10:32:16.000Z,9.80
2022-11-26T10:33:20.387Z,9.90
2022-11-26T10:34:38.683Z,9.90
2022-11-26T10:35:45.272Z,9.90
2022-11-26T10:36:51.019Z,9.90
2022-11-26T10:37:55.845Z,9.90
2022-11-26T10:38:58.290Z,9.90
2022-11-26T10:40:25.963Z,9.90
2022-11-26T10:41:35.334Z,9.90
2022-11-26T10:42:48.506Z,9.90
2022-11-26T10:43:53.402Z,9.90
2022-11-26T10:44:55.936Z,9.90
2022-11-26T10:45:58.185Z,9.90
2022-11-26T10:47:23.927Z,9.90
2022-11-26T10:48:27.568Z,9.90
2022-11-26T10:49:30.693Z,9.80
2022-11-26T10:50:50.768Z,9.90
2022-11-26T10:52:04.183Z,9.80
2022-11-26T10:53:06.887Z,9.80
2022-11-26T10:54:26.575Z,9.70
2022-11-26T10:55:39.588Z,9.70
2022-11-26T10:56:45.240Z,9.70
2022-11-26T10:58:18.296Z,9.70
2022-11-26T10:59:23.288Z,9.70
2022-11-26T11:00:37.870Z,9.70
2022-11-26T11:01:51.292Z,9.70
2022-11-26T11:02:56.811Z,9.80
2022-11-26T11:04:07.712Z,9.80
2022-11-26T11:05:11.912Z,9.80
2022-11-26T11:06:23.765Z,9.80
2022-11-26T11:07:41.262Z,9.80
2022-11-26T11:08:43.739Z,9.80
2022-11-26T11:09:46.089Z,9.80
2022-11-26T11:10:57.982Z,9.80
2022-11-26T11:12:17.950Z,9.80
2022-11-26T11:13:20.487Z,9.70
2022-11-26T11:14:31.763Z,9.80
2022-11-26T11:15:35.603Z,9.70
2022-11-26T11:16:46.149Z,9.70
2022-11-26T11:18:05.237Z,9.70
2022-11-26T11:19:24.550Z,9.70
2022-11-26T11:20:29.131Z,9.70
2022-11-26T11:21:36.353Z,9.60
2022-11-26T11:22:39.183Z,9.70
2022-11-26T11:24:06.968Z,9.70
2022-11-26T11:25:29.568Z,9.70
2022-11-26T11:26:46.737Z,9.70
2022-11-26T11:27:49.614Z,9.70
2022-11-26T11:28:54.546Z,9.70
2022-11-26T11:30:01.949Z,9.70
2022-11-26T11:31:16.376Z,9.70
2022-11-26T11:32:40.771Z,9.70
2022-11-26T11:33:43.759Z,9.70
2022-11-26T11:34:47.372Z,9.70
2022-11-26T11:36:17.827Z,9.70
2022-11-26T11:38:15.461Z,9.70
2022-11-26T11:39:29.732Z,9.70
2022-11-26T11:40:42.271Z,9.70
2022-11-26T11:41:48.949Z,9.70
2022-11-26T11:43:05.073Z,9.80
2022-11-26T11:44:15.403Z,9.80
2022-11-26T11:45:28.082Z,9.80
2022-11-26T11:46:41.446Z,9.80
2022-11-26T11:47:44.420Z,9.80
2022-11-26T11:48:47.156Z,9.80
2022-11-26T11:49:56.713Z,9.90
2022-11-26T11:51:12.601Z,9.90
2022-11-26T11:52:30.791Z,9.90
2022-11-26T11:53:57.360Z,9.90
2022-11-26T11:55:12.783Z,10.00
2022-11-26T11:56:31.269Z,10.00
2022-11-26T11:57:54.961Z,10.00
2022-11-26T11:59:18.996Z,10.00
2022-11-26T12:00:42.814Z,10.00
2022-11-26T12:02:12.801Z,10.00
2022-11-26T12:03:33.744Z,10.00
2022-11-26T12:05:01.856Z,9.90
2022-11-26T12:06:48.840Z,10.00
2022-11-26T12:08:00.439Z,10.00
2022-11-26T12:09:16.168Z,9.90
2022-11-26T12:10:35.180Z,9.90
2022-11-26T12:11:52.953Z,9.90
2022-11-26T12:13:00.053Z,9.90
2022-11-26T12:14:18.875Z,9.80
2022-11-26T12:15:29.616Z,9.80
2022-11-26T12:16:36.666Z,9.80
2022-11-26T12:17:48.117Z,9.80
2022-11-26T12:18:58.091Z,9.70
2022-11-26T12:20:32.482Z,9.70
2022-11-26T12:21:57.369Z,9.70
2022-11-26T12:23:30.286Z,9.70
2022-11-26T12:24:40.553Z,9.70
2022-11-26T12:25:47.161Z,9.70
2022-11-26T12:26:57.340Z,9.70
2022-11-26T12:28:15.360Z,9.70
2022-11-26T12:29:17.584Z,9.60
2022-11-26T12:30:26.100Z,9.60
2022-11-26T12:31:45.627Z,9.60
2022-11-26T12:33:05.508Z,9.60
2022-11-26T12:34:30.194Z,9.60
2022-11-26T12:35:38.491Z,9.60
2022-11-26T12:36:55.274Z,9.60
2022-11-26T12:38:06.325Z,9.70
2022-11-26T12:39:42.693Z,9.60
2022-11-26T12:40:52.161Z,9.60
2022-11-26T12:42:28.629Z,9.70
2022-11-26T12:43:49.208Z,9.60
2022-11-26T12:44:52.641Z,9.60
2022-11-26T12:46:06.689Z,9.60
2022-11-26T12:47:34.748Z,9.60
2022-11-26T12:48:56.479Z,9.60
2022-11-26T12:50:25.479Z,9.60
2022-11-26T12:51:49.233Z,9.50
2022-11-26T12:53:16.524Z,9.50
2022-11-26T12:54:29.013Z,9.40
2022-11-26T12:55:50.016Z,9.40
2022-11-26T12:57:10.365Z,9.40
2022-11-26T12:58:19.341Z,9.30
2022-11-26T12:59:27.810Z,9.30
2022-11-26T13:00:36.754Z,9.30
2022-11-26T13:01:39.388Z,9.30
2022-11-26T13:02:45.559Z,9.30
2022-11-26T13:03:47.859Z,9.30
2022-11-26T13:04:51.886Z,9.30
2022-11-26T13:06:35.729Z,9.30
2022-11-26T13:08:27.223Z,9.30
2022-11-26T13:09:38.833Z,9.40
2022-11-26T13:11:08.604Z,9.30
2022-11-26T13:12:26.757Z,9.40
2022-11-26T13:13:48.264Z,9.40
2022-11-26T13:14:59.703Z,9.40
2022-11-26T13:16:23.467Z,9.40
2022-11-26T13:17:53.026Z,9.40
2022-11-26T13:19:06.883Z,9.40
2022-11-26T13:20:35.277Z,9.40
2022-11-26T13:22:03.367Z,9.40
2022-11-26T13:23:17.451Z,9.40
2022-11-26T13:24:43.500Z,9.40
2022-11-26T13:25:54.194Z,9.50
2022-11-26T13:27:17.509Z,9.40
2022-11-26T13:28:43.877Z,9.40
2022-11-26T13:30:01.112Z,9.40
2022-11-26T13:31:30.498Z,9.40
2022-11-26T13:33:01.416Z,9.40
2022-11-26T13:34:28.612Z,9.50
2022-11-26T13:35:59.283Z,9.50
2022-11-26T13:37:32.829Z,9.50
2022-11-26T13:38:48.900Z,9.50
2022-11-26T13:40:29.616Z,9.50
2022-11-26T13:41:56.011Z,9.50
2022-11-26T13:43:10.466Z,9.50
2022-11-26T13:44:51.527Z,9.50
2022-11-26T13:46:01.165Z,9.50
2022-11-26T13:47:10.915Z,9.50
2022-11-26T13:48:42.688Z,9.40
2022-11-26T13:50:02.380Z,9.50
2022-11-26T13:51:22.117Z,9.40
2022-11-26T13:52:44.079Z,9.40
2022-11-26T13:53:53.264Z,9.40
2022-11-26T13:55:12.135Z,9.40
2022-11-26T13:56:16.266Z,9.40
2022-11-26T13:57:24.567Z,9.40
2022-11-26T13:58:40.945Z,9.40
2022-11-26T13:59:48.428Z,9.40
2022-11-26T14:00:50.956Z,9.40
2022-11-26T14:01:53.398Z,9.50
2022-11-26T14:02:56.850Z,9.50
2022-11-26T14:03:59.371Z,9.50
2022-11-26T14:05:04.110Z,9.50
2022-11-26T14:06:08.274Z,9.50
2022-11-26T14:07:10.700Z,9.50
2022-11-26T14:08:34.453Z,9.60
2022-11-26T14:10:00.805Z,9.60
2022-11-26T14:11:03.925Z,9.60
2022-11-26T14:12:06.148Z,9.60
2022-11-26T14:13:10.060Z,9.60
2022-11-26T14:14:24.613Z,9.60
2022-11-26T14:15:41.996Z,9.60
2022-11-26T14:17:02.781Z,9.60
2022-11-26T14:18:05.331Z,9.60
2022-11-26T14:19:07.694Z,9.60
2022-11-26T14:20:10.808Z,9.60
2022-11-26T14:21:14.047Z,9.60
2022-11-26T14:22:19.258Z,9.60
2022-11-26T14:23:47.534Z,9.60
2022-11-26T14:24:52.547Z,9.60
2022-11-26T14:25:54.897Z,9.60
2022-11-26T14:26:57.207Z,9.60
2022-11-26T14:28:01.895Z,9.60
2022-11-26T14:29:11.803Z,9.60
2022-11-26T14:30:20.527Z,9.60
2022-11-26T14:31:32.484Z,9.60
2022-11-26T14:32:42.453Z,9.60
2022-11-26T14:33:46.663Z,9.50
2022-11-26T14:34:52.608Z,9.50
2022-11-26T14:35:56.983Z,9.50
2022-11-26T14:37:01.255Z,9.50
2022-11-26T14:38:07.032Z,9.50
2022-11-26T14:39:09.358Z,9.50
2022-11-26T14:40:27.537Z,9.50
2022-11-26T14:41:42.780Z,9.50
2022-11-26T14:42:45.033Z,9.40
2022-11-26T14:43:47.269Z,9.40
2022-11-26T14:45:00.671Z,9.40
2022-11-26T14:46:05.325Z,9.40
2022-11-26T14:47:20.623Z,9.40
2022-11-26T14:48:26.016Z,9.40
2022-11-26T14:49:41.428Z,9.40
2022-11-26T14:50:44.358Z,9.40
2022-11-26T14:51:49.463Z,9.40
2022-11-26T14:52:58.300Z,9.40
2022-11-26T14:54:01.003Z,9.40
2022-11-26T14:55:07.464Z,9.40
2022-11-26T14:56:10.802Z,9.40
2022-11-26T14:57:25.554Z,9.40
2022-11-26T14:58:30.431Z,9.40